Flight Track Log - Related Links

Times and Time Zones

All times are in EDT time to prevent confusion due to time zone crossing. See the ASQ6177 flight status page for this flight to view local times or setup timezone preferences in your user account.

Time Position Orientation Groundspeed Altitude Reporting Facility
EDT Latitude Longitude Course Direction KTS MPH feet Rate Location/Type
Fri 07:20:26 PM 39.0500 -84.7000 351° North 177 204 1,500  Level Cincinnati TRACON
Fri 07:21:14 PM 39.0667 -84.7333 303° West 193 222 3,000 2,627 Climbing Cincinnati TRACON
Fri 07:22:59 PM 39.1714 -84.7997 334° Northwest 225 259 8,200 2,802 Climbing Indianapolis Center
Fri 07:24:00 PM 39.0080 -84.8804 345° North  Level FlightAware Approximate
Fri 07:24:01 PM 39.2347 -84.8353 337° Northwest 241 277 10,800  Level Indianapolis Center
Fri 07:25:00 PM 39.0963 -84.8992 351° North  Level FlightAware Approximate
Fri 07:25:03 PM 39.3042 -84.8775 335° Northwest 266 306 11,900  Level Indianapolis Center
Fri 07:26:05 PM 39.3894 -84.9344 333° Northwest 320 368 13,100 1,403 Climbing Indianapolis Center
Fri 07:27:07 PM 39.4739 -84.9903 333° Northwest 337 388 14,800 1,548 Climbing Indianapolis Center
Fri 07:28:09 PM 39.5575 -85.0461 333° Northwest 339 390 16,300 1,984 Climbing Indianapolis Center
Fri 07:29:11 PM 39.6556 -85.1094 334° Northwest 332 382 18,900 1,902 Climbing Indianapolis Center
Fri 07:30:12 PM 39.7344 -85.1642 332° Northwest 324 373 20,200 1,463 Climbing Indianapolis Center
Fri 07:31:14 PM 39.8178 -85.2194 333° Northwest 334 384 21,900 871 Climbing Indianapolis Center
Fri 07:32:16 PM 39.9011 -85.2756 333° Northwest 337 388 22,000 48 Climbing Indianapolis Center
Fri 07:33:18 PM 39.9850 -85.3317 333° Northwest 340 391 22,000  Level Indianapolis Center
Fri 07:34:20 PM 40.0675 -85.3875 333° Northwest 338 389 22,000  Level Indianapolis Center
Fri 07:35:22 PM 40.1664 -85.4556 332° Northwest 336 387 22,000  Level Indianapolis Center
Fri 07:37:25 PM 40.3197 -85.5928 326° Northwest 350 403 22,000  Level Indianapolis Center
Fri 07:37:50 PM 40.3456 -85.6289 313° West 354 407 22,000  Level Chicago Center
Fri 07:38:27 PM 40.3864 -85.6903 311° West 361 415 22,000  Level Indianapolis Center
Fri 07:38:52 PM 40.4139 -85.7306 312° West 369 425 22,000  Level Chicago Center
Fri 07:39:54 PM 40.4828 -85.8331 311° West 375 432 22,000  Level Chicago Center
Fri 07:40:56 PM 40.5647 -85.9581 311° West 377 434 22,000  Level Chicago Center
Fri 07:41:58 PM 40.6319 -86.0600 311° West 373 429 22,000  Level Chicago Center
Fri 07:43:00 PM 40.6928 -86.1536 311° West 371 427 22,000  Level Chicago Center
Fri 07:44:02 PM 40.7622 -86.2581 311° West 375 432 22,000  Level Chicago Center
Fri 07:45:04 PM 40.8422 -86.3836 310° West 374 430 22,000  Level Chicago Center
Fri 07:46:06 PM 40.9089 -86.4850 311° West 369 425 22,000  Level Chicago Center
Fri 07:47:08 PM 40.9769 -86.5878 311° West 369 425 22,000  Level Chicago Center
Fri 07:48:11 PM 41.0433 -86.6906 311° West 368 423 22,000 -576 Level Chicago Center
Fri 07:49:13 PM 41.1083 -86.7922 310° West 370 426 20,800 -1,452 Descending Chicago Center
Fri 07:50:15 PM 41.1889 -86.9169 311° West 372 428 19,000 -1,597 Descending Chicago Center
Fri 07:51:17 PM 41.2539 -87.0197 310° West 366 421 17,500 -1,694 Descending Chicago Center
Fri 07:52:19 PM 41.3175 -87.1197 310° West 359 413 15,500 -1,935 Descending Chicago Center
Fri 07:53:21 PM 41.3789 -87.2122 312° West 341 392 13,500 -2,032 Descending Chicago Center
Fri 07:54:23 PM 41.4617 -87.3089 319° Northwest 334 384 11,300 -1,210 Descending Chicago Center
Fri 07:55:25 PM 41.5297 -87.3881 319° Northwest 328 377 11,000 -145 Descending Chicago Center
Fri 07:56:27 PM 41.5969 -87.4625 320° Northwest 320 368 11,000 -387 Level Chicago Center
Fri 07:57:29 PM 41.6631 -87.5344 321° Northwest 308 354 10,200 -871 Descending Chicago Center
Fri 07:58:31 PM 41.7189 -87.5981 320° Northwest 273 314 9,200 -581 Descending Chicago Center
Fri 07:59:33 PM 41.7858 -87.6736 320° Northwest 265 305 9,000 -96 Descending Chicago Center
Fri 08:00:36 PM 41.8397 -87.7383 318° Northwest 263 303 9,000  Level Chicago Center
Fri 08:01:38 PM 41.8825 -87.8197 305° West 274 315 9,000  Level Chicago Center
Fri 08:02:21 PM 41.8833 -87.9000 271° West 294 338 9,000  Level Chicago TRACON
Fri 08:03:27 PM 41.8833 -88.0167 270° West 295 339 9,000  Level Chicago TRACON
Fri 08:04:21 PM 41.8833 -88.1167 270° West 259 298 9,000 -156 Level Chicago TRACON
Fri 08:04:44 PM 41.8839 -88.1469 271° West 270 311 8,800 -1,059 Descending Chicago Center
Fri 08:05:46 PM 41.8839 -88.2292 270° West 229 264 7,500 -1,161 Descending Chicago Center
Fri 08:06:48 PM 41.8828 -88.3133 269° West 228 262 6,400 -774 Descending Chicago Center
Fri 08:07:50 PM 41.9231 -88.3561 322° Northwest 237 273 5,900 -677 Descending Chicago Center
Fri 08:08:52 PM 41.9633 -88.2864 52° Northeast 212 244 5,000 -484 Descending Chicago Center
Fri 08:09:54 PM 41.9681 -88.2167 85° East 196 226 4,900 -97 Descending Chicago Center

Login

Don't have an account? Register now (free) for customized features, flight alerts, and more!